Monmouth, Oregon
Current Conditions -  °F | °C
As of 2:56 PM on Thursday 27 Nov 2014 (Local Time) from KSLE Reporting Station
Light Rain Light Rain  
Wind Chill: 54°   Ceiling: 4400
Heat Index: 54°   Visibility: 10mi
Dew Point: 50°   Wind: 14mph
Humidity: 86%   Direction: 160°SSE
Pressure: 29.92"   Gusts: 23mph
Location:  44.85°N, 123.23°W
Report Text: KSLE 272256Z 16012G20KT 10SM -RA FEW015 BKN044 OVC090 12/10 A2992 RMK AO2 SLP133 P0001 T01220100
Loading
Personal Weather Stations






























Interactive Weather Map New forecast layout! Learn more

10-Day Weather Forecast

Advertisements
Track Severe Weather on mobile